createdAt,value
2018-01-18T00:01:27.950Z,3.00
2018-01-18T00:03:55.789Z,3.00
2018-01-18T00:06:23.645Z,4.00
2018-01-18T00:08:51.490Z,3.23
2018-01-18T00:11:19.411Z,3.17
2018-01-18T00:13:47.299Z,3.70
2018-01-18T00:16:15.188Z,3.43
2018-01-18T00:18:43.035Z,5.73
2018-01-18T00:21:10.914Z,2.97
2018-01-18T00:23:38.791Z,3.67
2018-01-18T00:26:06.668Z,3.77
2018-01-18T00:28:34.588Z,3.20
2018-01-18T00:31:02.443Z,3.60
2018-01-18T00:33:30.384Z,3.47
2018-01-18T00:35:58.262Z,3.20
2018-01-18T00:38:26.101Z,3.17
2018-01-18T00:40:53.941Z,2.97
2018-01-18T00:43:21.809Z,5.00
2018-01-18T00:45:49.706Z,3.10
2018-01-18T00:48:17.544Z,6.13
2018-01-18T00:50:45.591Z,4.27
2018-01-18T00:53:13.436Z,14.73
2018-01-18T00:55:41.443Z,6.37
2018-01-18T00:58:09.382Z,3.80
2018-01-18T01:00:37.259Z,4.13
2018-01-18T01:03:05.208Z,4.30
2018-01-18T01:05:33.106Z,4.90
2018-01-18T01:08:00.940Z,4.83
2018-01-18T01:10:28.788Z,4.80
2018-01-18T01:12:57.747Z,4.50
2018-01-18T01:15:25.578Z,4.87
2018-01-18T01:17:53.455Z,4.60
2018-01-18T01:20:21.333Z,4.40
2018-01-18T01:22:49.264Z,4.30
2018-01-18T01:25:17.103Z,3.30
2018-01-18T01:27:44.958Z,4.10
2018-01-18T01:30:12.800Z,4.20
2018-01-18T01:32:40.662Z,3.57
2018-01-18T01:35:08.576Z,3.63
2018-01-18T01:37:36.415Z,4.30
2018-01-18T01:40:04.296Z,3.50
2018-01-18T01:42:32.231Z,3.47
2018-01-18T01:45:02.882Z,4.00
2018-01-18T01:47:30.743Z,3.40
2018-01-18T01:49:58.612Z,3.10
2018-01-18T01:52:30.432Z,3.30
2018-01-18T01:54:58.310Z,3.77
2018-01-18T01:57:26.193Z,3.27
2018-01-18T01:59:54.025Z,9.90
2018-01-18T02:02:21.922Z,11.80
2018-01-18T02:04:49.774Z,6.40
2018-01-18T02:07:17.687Z,3.20
2018-01-18T02:09:45.690Z,4.40
2018-01-18T02:12:13.770Z,3.77
2018-01-18T02:14:41.695Z,3.20
2018-01-18T02:17:09.636Z,2.90
2018-01-18T02:19:37.679Z,3.20
2018-01-18T02:22:05.664Z,3.60
2018-01-18T02:24:33.596Z,4.00
2018-01-18T02:27:01.581Z,4.00
2018-01-18T02:29:29.502Z,4.20
2018-01-18T02:32:07.187Z,4.50
2018-01-18T02:34:35.505Z,4.30
2018-01-18T02:37:12.941Z,4.40
2018-01-18T02:39:42.006Z,5.00
2018-01-18T02:42:10.967Z,4.70
2018-01-18T02:44:40.764Z,4.93
2018-01-18T02:47:09.988Z,5.17
2018-01-18T02:49:38.074Z,5.33
2018-01-18T02:52:13.415Z,4.73
2018-01-18T02:54:43.928Z,5.67
2018-01-18T02:57:19.042Z,5.90
2018-01-18T02:59:50.385Z,6.40
2018-01-18T03:02:19.060Z,6.20
2018-01-18T03:04:47.936Z,5.60
2018-01-18T03:07:21.450Z,5.50
2018-01-18T03:09:51.147Z,5.90
2018-01-18T03:12:19.179Z,5.93
2018-01-18T03:14:47.011Z,5.80
2018-01-18T03:17:15.595Z,6.50
2018-01-18T03:19:44.058Z,5.73
2018-01-18T03:22:14.081Z,6.83
2018-01-18T03:24:42.188Z,6.80
2018-01-18T03:27:10.587Z,5.77
2018-01-18T03:29:38.512Z,6.70
2018-01-18T03:32:06.621Z,6.77
2018-01-18T03:34:34.879Z,6.67
2018-01-18T03:37:02.842Z,7.33
2018-01-18T03:39:30.703Z,7.57
2018-01-18T03:41:58.783Z,7.03
2018-01-18T03:44:26.606Z,6.43
2018-01-18T03:46:54.498Z,6.53
2018-01-18T03:49:22.335Z,7.40
2018-01-18T03:51:50.162Z,6.90
2018-01-18T03:54:18.011Z,6.90
2018-01-18T03:56:45.877Z,7.17
2018-01-18T03:59:13.754Z,16.87
2018-01-18T04:01:41.591Z,7.80
2018-01-18T04:04:09.438Z,7.00
2018-01-18T04:06:37.307Z,7.20
2018-01-18T04:09:05.158Z,9.27
2018-01-18T04:11:33.101Z,8.40
2018-01-18T04:14:00.950Z,6.67
2018-01-18T04:16:28.795Z,7.50
2018-01-18T04:18:56.797Z,9.37
2018-01-18T04:21:24.659Z,6.80
2018-01-18T04:23:52.541Z,7.00
2018-01-18T04:26:20.482Z,5.93
2018-01-18T04:28:48.352Z,6.00
2018-01-18T04:31:16.232Z,5.93
2018-01-18T04:33:44.099Z,6.47
2018-01-18T04:36:12.092Z,5.63
2018-01-18T04:38:39.967Z,5.57
2018-01-18T04:41:07.948Z,5.60
2018-01-18T04:43:35.829Z,5.30
2018-01-18T04:46:03.700Z,5.87
2018-01-18T04:48:31.555Z,5.07
2018-01-18T04:50:59.429Z,5.50
2018-01-18T04:53:27.350Z,5.60
2018-01-18T04:55:55.233Z,5.33
2018-01-18T04:58:23.112Z,5.63
2018-01-18T05:00:50.959Z,5.80
2018-01-18T05:03:18.864Z,5.50
2018-01-18T05:05:46.743Z,5.20
2018-01-18T05:08:14.662Z,5.10
2018-01-18T05:10:42.552Z,5.90
2018-01-18T05:13:10.428Z,5.80
2018-01-18T05:15:38.316Z,5.80
2018-01-18T05:18:06.148Z,5.30
2018-01-18T05:20:34.053Z,5.70
2018-01-18T05:23:01.900Z,4.90
2018-01-18T05:25:29.814Z,3.70
2018-01-18T05:27:57.661Z,3.57
2018-01-18T05:30:25.489Z,5.70
2018-01-18T05:32:53.358Z,4.77
2018-01-18T05:35:21.240Z,4.73
2018-01-18T05:37:49.149Z,3.83
2018-01-18T05:40:17.889Z,4.10
2018-01-18T05:42:45.733Z,4.97
2018-01-18T05:45:13.592Z,4.83
2018-01-18T05:47:41.456Z,5.17
2018-01-18T05:50:09.354Z,6.70
2018-01-18T05:52:37.197Z,4.77
2018-01-18T05:55:05.104Z,5.80
2018-01-18T05:57:32.965Z,4.97
2018-01-18T06:00:00.834Z,5.50
2018-01-18T06:02:28.699Z,6.57
2018-01-18T06:04:56.541Z,6.37
2018-01-18T06:07:24.388Z,5.77
2018-01-18T06:09:52.364Z,5.63
2018-01-18T06:12:20.243Z,5.70
2018-01-18T06:14:48.102Z,7.07
2018-01-18T06:17:15.978Z,6.33
2018-01-18T06:19:43.833Z,6.83
2018-01-18T06:22:11.666Z,6.30
2018-01-18T06:24:39.555Z,6.13
2018-01-18T06:27:07.432Z,5.77
2018-01-18T06:29:35.300Z,5.60
2018-01-18T06:32:03.179Z,6.67
2018-01-18T06:34:31.048Z,6.10
2018-01-18T06:36:58.891Z,6.13
2018-01-18T06:39:26.784Z,6.00
2018-01-18T06:41:54.647Z,6.27
2018-01-18T06:44:22.502Z,5.77
2018-01-18T06:46:50.363Z,5.30
2018-01-18T06:49:18.243Z,6.40
2018-01-18T06:51:46.104Z,6.13
2018-01-18T06:54:13.991Z,6.43
2018-01-18T06:56:41.845Z,6.13
2018-01-18T06:59:09.708Z,5.50
2018-01-18T07:01:37.613Z,4.90
2018-01-18T07:04:05.468Z,4.50
2018-01-18T07:06:33.355Z,4.77
2018-01-18T07:09:01.236Z,4.63
2018-01-18T07:11:29.067Z,4.73
2018-01-18T07:13:56.916Z,3.90
2018-01-18T07:16:24.798Z,4.67
2018-01-18T07:18:52.674Z,4.60
2018-01-18T07:21:20.544Z,4.40
2018-01-18T07:23:48.489Z,4.10
2018-01-18T07:26:16.327Z,3.97
2018-01-18T07:28:44.170Z,3.53
2018-01-18T07:31:12.068Z,3.70
2018-01-18T07:33:39.928Z,3.70
2018-01-18T07:36:07.856Z,3.70
2018-01-18T07:38:35.761Z,3.67
2018-01-18T07:41:03.648Z,3.70
2018-01-18T07:43:31.527Z,3.50
2018-01-18T07:45:59.401Z,3.23
2018-01-18T07:48:27.234Z,3.90
2018-01-18T07:50:55.096Z,3.73
2018-01-18T07:53:22.983Z,3.63
2018-01-18T07:55:50.847Z,4.20
2018-01-18T07:58:18.743Z,2.60
2018-01-18T08:00:46.652Z,3.37
2018-01-18T08:03:31.229Z,3.33
2018-01-18T08:05:59.105Z,3.10
2018-01-18T08:08:26.952Z,3.10
2018-01-18T08:10:54.843Z,3.20
2018-01-18T08:13:22.780Z,4.07
2018-01-18T08:15:50.636Z,3.60
2018-01-18T08:18:18.488Z,3.33
2018-01-18T08:20:47.296Z,3.63
2018-01-18T08:23:15.224Z,4.00
2018-01-18T08:25:43.098Z,2.60
2018-01-18T08:28:10.979Z,3.53
2018-01-18T08:30:38.842Z,3.77
2018-01-18T08:33:06.734Z,2.90
2018-01-18T08:35:34.641Z,3.30
2018-01-18T08:38:02.509Z,2.97
2018-01-18T08:40:30.347Z,3.40
2018-01-18T08:42:58.221Z,3.53
2018-01-18T08:45:26.109Z,3.23
2018-01-18T08:47:53.944Z,2.50
2018-01-18T08:50:21.839Z,2.97
2018-01-18T08:52:49.894Z,2.80
2018-01-18T08:55:17.739Z,2.57
2018-01-18T08:57:45.633Z,4.13
2018-01-18T09:00:13.489Z,2.60
2018-01-18T09:02:41.348Z,2.60
2018-01-18T09:05:09.253Z,2.20
2018-01-18T09:07:37.149Z,2.50
2018-01-18T09:10:05.088Z,2.60
2018-01-18T09:12:33.072Z,2.60
2018-01-18T09:15:00.947Z,3.17
2018-01-18T09:17:28.783Z,3.30
2018-01-18T09:19:56.686Z,2.00
2018-01-18T09:22:24.542Z,2.73
2018-01-18T09:24:52.368Z,3.20
2018-01-18T09:27:20.799Z,3.23
2018-01-18T09:29:48.643Z,3.03
2018-01-18T09:32:16.495Z,2.53
2018-01-18T09:34:44.428Z,2.77
2018-01-18T09:37:12.276Z,3.47
2018-01-18T09:39:40.169Z,5.20
2018-01-18T09:42:08.089Z,2.83
2018-01-18T09:44:35.963Z,4.70
2018-01-18T09:47:03.865Z,4.80
2018-01-18T09:49:31.763Z,4.73
2018-01-18T09:51:59.624Z,3.40
2018-01-18T09:54:27.465Z,2.90
2018-01-18T09:56:55.344Z,3.43
2018-01-18T09:59:23.226Z,3.47
2018-01-18T10:01:51.099Z,4.07
2018-01-18T10:04:19.048Z,4.37
2018-01-18T10:06:46.902Z,4.67
2018-01-18T10:09:14.771Z,1.60
2018-01-18T10:11:42.692Z,3.27
2018-01-18T10:14:10.633Z,2.77
2018-01-18T10:16:38.496Z,3.17
2018-01-18T10:19:06.571Z,3.37
2018-01-18T10:21:34.453Z,3.70
2018-01-18T10:24:05.139Z,4.97
2018-01-18T10:26:33.019Z,4.30
2018-01-18T10:29:00.864Z,4.67
2018-01-18T10:31:28.708Z,4.60
2018-01-18T10:34:04.218Z,4.80
2018-01-18T10:36:47.380Z,5.00
2018-01-18T10:39:15.326Z,4.37
2018-01-18T10:41:43.203Z,3.50
2018-01-18T10:44:11.089Z,4.30
2018-01-18T10:46:38.980Z,3.40
2018-01-18T10:49:06.864Z,3.27
2018-01-18T10:51:34.810Z,4.33
2018-01-18T10:54:02.692Z,4.17
2018-01-18T10:56:30.593Z,3.60
2018-01-18T10:58:59.623Z,2.70
2018-01-18T11:01:33.437Z,3.10
2018-01-18T11:04:03.447Z,4.47
2018-01-18T11:06:32.599Z,4.63
2018-01-18T11:09:04.580Z,3.77
2018-01-18T11:11:33.774Z,1.73
2018-01-18T11:14:05.229Z,2.47
2018-01-18T11:16:34.364Z,2.60
2018-01-18T11:19:03.260Z,2.63
2018-01-18T11:21:31.107Z,4.10
2018-01-18T11:24:07.539Z,4.23
2018-01-18T11:26:35.505Z,3.80
2018-01-18T11:29:03.384Z,3.13
2018-01-18T11:31:31.362Z,3.73
2018-01-18T11:33:59.277Z,3.73
2018-01-18T11:36:27.204Z,2.80
2018-01-18T11:38:55.095Z,3.13
2018-01-18T11:41:23.032Z,4.30
2018-01-18T11:43:50.945Z,3.60
2018-01-18T11:46:18.815Z,2.57
2018-01-18T11:48:46.841Z,3.17
2018-01-18T11:51:14.736Z,3.60
2018-01-18T11:53:42.649Z,3.80
2018-01-18T11:56:10.587Z,4.83
2018-01-18T11:58:38.444Z,5.00
2018-01-18T12:01:06.346Z,4.90
2018-01-18T12:03:35.498Z,2.30
2018-01-18T12:06:03.464Z,3.00
2018-01-18T12:08:31.440Z,2.67
2018-01-18T12:11:00.400Z,1.93
2018-01-18T12:13:28.313Z,3.00
2018-01-18T12:15:56.231Z,3.60
2018-01-18T12:18:24.153Z,3.33
2018-01-18T12:20:52.096Z,3.63
2018-01-18T12:23:20.472Z,2.87
2018-01-18T12:25:48.381Z,2.90
2018-01-18T12:28:16.231Z,3.03
2018-01-18T12:30:44.250Z,3.67
2018-01-18T12:33:12.147Z,2.80
2018-01-18T12:35:40.008Z,3.90
2018-01-18T12:38:07.933Z,2.70
2018-01-18T12:40:35.801Z,3.40
2018-01-18T12:43:03.635Z,4.50
2018-01-18T12:45:31.531Z,3.10
2018-01-18T12:47:59.374Z,3.50
2018-01-18T12:50:27.245Z,2.60
2018-01-18T12:52:55.126Z,3.00
2018-01-18T12:55:22.976Z,3.20
2018-01-18T12:57:50.854Z,4.90
2018-01-18T13:00:18.764Z,4.13
2018-01-18T13:02:46.606Z,3.57
2018-01-18T13:05:14.474Z,3.57
2018-01-18T13:07:42.338Z,4.03
2018-01-18T13:10:10.241Z,2.90
2018-01-18T13:12:38.108Z,4.50
2018-01-18T13:15:05.968Z,3.80
2018-01-18T13:17:33.883Z,5.90
2018-01-18T13:20:01.759Z,3.43
2018-01-18T13:22:29.737Z,3.20
2018-01-18T13:24:57.635Z,3.53
2018-01-18T13:27:25.512Z,4.00
2018-01-18T13:29:53.375Z,3.57
2018-01-18T13:32:21.258Z,2.73
2018-01-18T13:34:49.156Z,3.27
2018-01-18T13:37:17.089Z,1.70
2018-01-18T13:39:45.009Z,2.00
2018-01-18T13:42:12.902Z,2.13
2018-01-18T13:44:40.823Z,1.80
2018-01-18T13:47:08.748Z,2.10
2018-01-18T13:49:36.606Z,2.10
2018-01-18T13:52:04.489Z,1.10
2018-01-18T13:54:32.372Z,1.50
2018-01-18T13:57:00.301Z,1.37
2018-01-18T13:59:28.170Z,1.90
2018-01-18T14:01:56.120Z,1.83
2018-01-18T14:04:23.974Z,1.73
2018-01-18T14:06:51.815Z,1.40
2018-01-18T14:09:20.454Z,2.50
2018-01-18T14:11:48.359Z,2.00
2018-01-18T14:14:16.230Z,2.10
2018-01-18T14:16:44.088Z,1.90
2018-01-18T14:19:11.951Z,2.20
2018-01-18T14:21:39.792Z,2.93
2018-01-18T14:24:07.659Z,1.60
2018-01-18T14:26:36.878Z,1.33
2018-01-18T14:29:04.714Z,2.77
2018-01-18T14:31:32.614Z,1.60
2018-01-18T14:34:00.458Z,1.40
2018-01-18T14:36:28.313Z,2.20
2018-01-18T14:38:56.200Z,1.20
2018-01-18T14:41:24.075Z,1.40
2018-01-18T14:43:52.014Z,0.93
2018-01-18T14:46:19.957Z,1.00
2018-01-18T14:48:47.825Z,1.67
2018-01-18T14:51:15.672Z,1.83
2018-01-18T14:53:43.595Z,1.40
2018-01-18T14:56:11.571Z,1.27
2018-01-18T14:58:39.486Z,1.90
2018-01-18T15:01:07.352Z,1.00
2018-01-18T15:03:35.263Z,1.80
2018-01-18T15:06:03.330Z,2.90
2018-01-18T15:08:31.241Z,1.20
2018-01-18T15:11:04.759Z,1.20
2018-01-18T15:13:32.643Z,2.37
2018-01-18T15:16:00.503Z,1.87
2018-01-18T15:18:28.370Z,1.50
2018-01-18T15:21:01.108Z,1.63
2018-01-18T15:23:28.978Z,1.30
2018-01-18T15:25:57.249Z,1.30
2018-01-18T15:28:25.197Z,2.90
2018-01-18T15:30:53.129Z,1.40
2018-01-18T15:33:21.019Z,1.60
2018-01-18T15:35:48.933Z,3.37
2018-01-18T15:38:16.812Z,1.33
2018-01-18T15:40:44.760Z,2.27
2018-01-18T15:43:12.637Z,2.40
2018-01-18T15:45:40.623Z,1.90
2018-01-18T15:48:08.485Z,2.20
2018-01-18T15:50:36.374Z,5.07
2018-01-18T15:53:04.288Z,3.80
2018-01-18T15:55:33.746Z,2.17
2018-01-18T15:58:01.655Z,2.87
2018-01-18T16:00:37.394Z,1.80
2018-01-18T16:03:06.593Z,1.43
2018-01-18T16:05:34.496Z,2.00
2018-01-18T16:08:02.351Z,4.33
2018-01-18T16:10:30.250Z,2.00
2018-01-18T16:12:58.190Z,2.00
2018-01-18T16:15:26.125Z,2.20
2018-01-18T16:17:54.232Z,2.90
2018-01-18T16:20:22.152Z,2.13
2018-01-18T16:22:50.134Z,1.77
2018-01-18T16:25:18.123Z,3.03
2018-01-18T16:27:46.063Z,2.33
2018-01-18T16:30:14.021Z,2.63
2018-01-18T16:32:41.992Z,2.47
2018-01-18T16:35:09.901Z,2.00
2018-01-18T16:37:37.827Z,2.07
2018-01-18T16:40:05.715Z,1.90
2018-01-18T16:42:33.542Z,2.20
2018-01-18T16:45:01.411Z,2.60
2018-01-18T16:47:29.328Z,1.50
2018-01-18T16:49:57.193Z,1.77
2018-01-18T16:52:25.045Z,1.83
2018-01-18T16:54:52.930Z,1.83
2018-01-18T16:57:21.269Z,1.73
2018-01-18T16:59:49.202Z,1.67
2018-01-18T17:02:17.147Z,2.80
2018-01-18T17:04:45.043Z,1.50
2018-01-18T17:07:12.919Z,1.90
2018-01-18T17:09:40.867Z,1.73
2018-01-18T17:12:08.734Z,1.40
2018-01-18T17:14:36.817Z,1.77
2018-01-18T17:17:04.755Z,1.40
2018-01-18T17:19:32.621Z,0.87
2018-01-18T17:22:00.502Z,1.20
2018-01-18T17:24:29.320Z,0.90
2018-01-18T17:26:57.210Z,1.23
2018-01-18T17:29:25.153Z,0.90
2018-01-18T17:31:53.054Z,0.80
2018-01-18T17:34:20.929Z,1.00
2018-01-18T17:36:49.381Z,1.07
2018-01-18T17:39:17.263Z,0.97
2018-01-18T17:41:45.123Z,1.07
2018-01-18T17:44:13.002Z,1.63
2018-01-18T17:46:40.897Z,1.30
2018-01-18T17:49:08.788Z,1.30
2018-01-18T17:51:36.757Z,1.80
2018-01-18T17:54:04.651Z,1.70
2018-01-18T17:56:32.524Z,2.33
2018-01-18T17:59:00.487Z,2.37
2018-01-18T18:01:28.424Z,2.07
2018-01-18T18:03:56.351Z,1.50
2018-01-18T18:06:24.208Z,2.47
2018-01-18T18:08:52.150Z,2.67
2018-01-18T18:11:20.111Z,2.80
2018-01-18T18:13:47.946Z,2.97
2018-01-18T18:16:16.022Z,2.00
2018-01-18T18:18:43.917Z,2.90
2018-01-18T18:21:11.820Z,2.50
2018-01-18T18:23:39.807Z,2.57
2018-01-18T18:26:07.718Z,3.03
2018-01-18T18:28:35.672Z,2.57
2018-01-18T18:31:03.572Z,2.93
2018-01-18T18:33:31.465Z,2.77
2018-01-18T18:35:59.383Z,3.90
2018-01-18T18:38:27.255Z,3.17
2018-01-18T18:40:55.097Z,2.13
2018-01-18T18:43:22.936Z,3.30
2018-01-18T18:45:50.839Z,3.87
2018-01-18T18:48:18.680Z,4.50
2018-01-18T18:50:46.570Z,3.30
2018-01-18T18:53:14.435Z,3.90
2018-01-18T18:55:42.267Z,4.20
2018-01-18T18:58:10.170Z,5.07
2018-01-18T19:00:38.029Z,4.33
2018-01-18T19:03:05.871Z,4.07
2018-01-18T19:05:33.806Z,5.10
2018-01-18T19:08:01.681Z,3.90
2018-01-18T19:10:29.723Z,5.20
2018-01-18T19:12:57.563Z,5.37
2018-01-18T19:15:25.431Z,5.30
2018-01-18T19:17:53.313Z,5.90
2018-01-18T19:20:21.208Z,6.80
2018-01-18T19:22:49.068Z,5.83
2018-01-18T19:25:16.988Z,6.33
2018-01-18T19:27:44.882Z,5.30
2018-01-18T19:30:12.734Z,3.33
2018-01-18T19:32:40.624Z,3.87
2018-01-18T19:35:08.520Z,5.40
2018-01-18T19:37:36.388Z,5.23
2018-01-18T19:40:04.317Z,7.17
2018-01-18T19:42:32.160Z,4.40
2018-01-18T19:45:00.973Z,5.63
2018-01-18T19:47:28.998Z,4.77
2018-01-18T19:49:56.924Z,4.40
2018-01-18T19:52:24.782Z,3.30
2018-01-18T19:54:52.688Z,3.40
2018-01-18T19:57:20.543Z,3.30
2018-01-18T19:59:48.375Z,2.50
2018-01-18T20:02:16.253Z,2.73
2018-01-18T20:04:44.103Z,2.83
2018-01-18T20:07:12.322Z,3.30
2018-01-18T20:09:40.295Z,3.50
2018-01-18T20:12:08.135Z,2.10
2018-01-18T20:14:35.965Z,2.30
2018-01-18T20:17:03.831Z,3.17
2018-01-18T20:19:33.753Z,2.43
2018-01-18T20:22:01.634Z,2.87
2018-01-18T20:24:29.507Z,2.23
2018-01-18T20:26:57.387Z,1.80
2018-01-18T20:29:25.224Z,3.07
2018-01-18T20:31:53.083Z,3.27
2018-01-18T20:34:20.918Z,1.30
2018-01-18T20:36:48.798Z,2.37
2018-01-18T20:39:16.715Z,2.57
2018-01-18T20:41:45.660Z,2.57
2018-01-18T20:44:13.511Z,5.00
2018-01-18T20:46:41.383Z,3.43
2018-01-18T20:49:09.230Z,3.77
2018-01-18T20:51:37.079Z,3.63
2018-01-18T20:54:05.097Z,2.87
2018-01-18T20:56:32.940Z,2.07
2018-01-18T20:59:00.886Z,2.63
2018-01-18T21:01:29.760Z,3.70
2018-01-18T21:03:57.619Z,3.30
2018-01-18T21:06:25.447Z,3.10
2018-01-18T21:08:53.476Z,2.70
2018-01-18T21:11:21.354Z,2.97
2018-01-18T21:13:49.235Z,2.73
2018-01-18T21:16:17.103Z,1.80
2018-01-18T21:18:45.020Z,2.97
2018-01-18T21:21:12.859Z,2.00
2018-01-18T21:23:40.727Z,2.47
2018-01-18T21:26:08.571Z,2.27
2018-01-18T21:28:36.405Z,3.07
2018-01-18T21:31:04.317Z,2.60
2018-01-18T21:33:32.168Z,3.47
2018-01-18T21:36:00.023Z,3.20
2018-01-18T21:38:27.902Z,3.10
2018-01-18T21:40:55.736Z,3.17
2018-01-18T21:43:24.015Z,2.47
2018-01-18T21:45:51.943Z,2.40
2018-01-18T21:48:20.027Z,2.67
2018-01-18T21:50:47.928Z,1.70
2018-01-18T21:53:16.496Z,2.90
2018-01-18T21:55:44.325Z,2.73
2018-01-18T21:58:12.171Z,3.40
2018-01-18T22:00:40.038Z,2.20
2018-01-18T22:03:07.988Z,2.30
2018-01-18T22:05:37.279Z,2.80
2018-01-18T22:08:05.440Z,2.47
2018-01-18T22:10:33.374Z,3.20
2018-01-18T22:13:01.215Z,2.87
2018-01-18T22:15:29.108Z,3.10
2018-01-18T22:17:56.934Z,2.80
2018-01-18T22:20:24.777Z,2.67
2018-01-18T22:22:52.674Z,3.40
2018-01-18T22:25:20.781Z,2.93
2018-01-18T22:27:48.619Z,3.13
2018-01-18T22:30:16.491Z,3.50
2018-01-18T22:32:44.322Z,3.13
2018-01-18T22:35:12.237Z,2.40
2018-01-18T22:37:40.451Z,3.23
2018-01-18T22:40:08.365Z,4.00
2018-01-18T22:42:36.316Z,4.90
2018-01-18T22:45:04.240Z,5.10
2018-01-18T22:47:32.119Z,5.77
2018-01-18T22:49:59.976Z,7.07
2018-01-18T22:52:28.051Z,6.77
2018-01-18T22:54:55.892Z,6.13
2018-01-18T22:57:23.751Z,6.10
2018-01-18T22:59:51.650Z,6.77
2018-01-18T23:02:19.487Z,6.50
2018-01-18T23:04:47.311Z,9.10
2018-01-18T23:07:15.200Z,6.80
2018-01-18T23:09:43.043Z,6.97
2018-01-18T23:12:10.918Z,6.80
2018-01-18T23:14:38.783Z,6.40
2018-01-18T23:17:06.640Z,7.10
2018-01-18T23:19:34.501Z,9.80
2018-01-18T23:22:02.383Z,7.00
2018-01-18T23:24:30.382Z,7.60
2018-01-18T23:26:58.232Z,6.00
2018-01-18T23:29:26.185Z,6.43
2018-01-18T23:31:54.066Z,6.77
2018-01-18T23:34:21.903Z,6.10
2018-01-18T23:36:49.757Z,5.33
2018-01-18T23:39:17.598Z,5.87
2018-01-18T23:41:45.443Z,6.13
2018-01-18T23:44:13.315Z,5.83
2018-01-18T23:46:41.154Z,5.80
2018-01-18T23:49:09.002Z,6.10
2018-01-18T23:51:36.873Z,6.10
2018-01-18T23:54:04.707Z,5.47
2018-01-18T23:56:32.539Z,5.80
2018-01-18T23:59:00.400Z,6.10
